Hikarimaru No.17 — JD2956 — position and weather

sailwx.info

Track history (hours):
 
Tides and Currents Weather Stations Pressure Air Temp Water Temp Dewpoint Dewpoint Depression Visibility Wind Speed Wind Dir Waves Ship Positions

Hikarimaru No.17

Last reported at 2015-Aug-29 06:32 UTC. Time now 2015-Aug-29 07:25 UTC.
Position N 34°13' E 135°09'.

Length 105 m; draft 5.5 m.

Type: Tanker. MMSI: 431000984.

Date/timePositionNaut miles runAvg speedWind from/ knotsBaromVisibWave heightAir tempDewpointWater temp
2015-Aug-29 06:32N 34°13' E 135°09'0 0.0
2015-Aug-29 05:32N 34°13' E 135°09'0 0.0
2015-Aug-29 04:32N 34°13' E 135°09'0 0.0
2015-Aug-29 03:32N 34°13' E 135°09'0 0.0
2015-Aug-29 02:32N 34°13' E 135°09'0 0.0
2015-Aug-29 01:32N 34°13' E 135°09'0 0.0
2015-Aug-29 00:32N 34°13' E 135°09'2 1.7
2015-Aug-28 23:31N 34°12' E 135°07'0 0.0
2015-Aug-28 22:31N 34°12' E 135°07'0 0.0
2015-Aug-28 21:31N 34°12' E 135°07'0 0.0
2015-Aug-28 20:31N 34°12' E 135°07'0 0.0
2015-Aug-28 19:31N 34°12' E 135°07'0 0.0
2015-Aug-28 18:31N 34°12' E 135°07'0 0.0
2015-Aug-28 17:31N 34°12' E 135°07'0 0.0
2015-Aug-28 16:31N 34°12' E 135°07'0 0.0
2015-Aug-28 15:31N 34°12' E 135°07'0 0.1
2015-Aug-28 14:31N 34°12' E 135°07'0 0.0
2015-Aug-28 13:31N 34°12' E 135°07'0 0.0
2015-Aug-28 12:31N 34°12' E 135°07'1 1.0
2015-Aug-28 11:33N 34°12' E 135°06'24 1.0
2015-Aug-27 12:25N 34°35' E 135°13'22 2.5
2015-Aug-27 03:30N 34°16' E 134°60'1212.4
2015-Aug-27 02:33N 34°09' E 135°11'0 0.1
2015-Aug-27 01:32N 34°09' E 135°11'0 0.0
2015-Aug-27 00:32N 34°09' E 135°11'0 0.0
2015-Aug-26 23:32N 34°09' E 135°11'2 1.7
2015-Aug-26 22:33N 34°09' E 135°09'0 0.0
2015-Aug-26 21:33N 34°09' E 135°09'0 0.0
2015-Aug-26 20:33N 34°09' E 135°09'0 0.0
2015-Aug-26 19:33N 34°09' E 135°09'0 0.0
2015-Aug-26 18:33N 34°09' E 135°09'0 0.0
2015-Aug-26 17:33N 34°09' E 135°09'0 0.1
2015-Aug-26 16:33N 34°09' E 135°09'0 0.0
2015-Aug-26 15:33N 34°09' E 135°09'0 0.0
2015-Aug-26 14:33N 34°09' E 135°09'0 0.0
2015-Aug-26 13:33N 34°09' E 135°09'0 0.0
2015-Aug-26 12:33N 34°09' E 135°09'0 0.0
2015-Aug-26 11:33N 34°09' E 135°09'0 0.0
2015-Aug-26 10:33N 34°09' E 135°09'0 0.0
2015-Aug-26 09:30N 34°09' E 135°09'0 0.0
2015-Aug-26 08:33N 34°09' E 135°09'4 3.8
2015-Aug-26 07:34N 34°11' E 135°05'1110.1
2015-Aug-26 06:30N 34°21' E 135°00'1313.2
2015-Aug-26 05:33N 34°28' E 135°13'1111.2
2015-Aug-26 04:33N 34°33' E 135°25'0 0.3
2015-Aug-26 03:31N 34°32' E 135°25'2 0.4
2015-Aug-25 23:33N 34°33' E 135°23'5 4.0
2015-Aug-25 22:25N 34°33' E 135°18'0 0.1
2015-Aug-25 21:31N 34°33' E 135°18'0 0.0
2015-Aug-25 20:31N 34°33' E 135°18'0 0.0
2015-Aug-25 19:25N 34°33' E 135°18'0 0.0
2015-Aug-25 18:19N 34°33' E 135°18'0 0.0
2015-Aug-25 17:31N 34°33' E 135°18'0 0.0
2015-Aug-25 16:31N 34°33' E 135°18'0 0.0
2015-Aug-25 15:31N 34°33' E 135°18'0 0.0
2015-Aug-25 14:31N 34°33' E 135°18'0 0.0
2015-Aug-25 13:31N 34°33' E 135°18'0 0.0
2015-Aug-25 12:31N 34°33' E 135°18'0 0.0
2015-Aug-25 11:13N 34°33' E 135°18'0 0.0
2015-Aug-25 10:31N 34°33' E 135°18'0 0.0
2015-Aug-25 09:31N 34°33' E 135°18'0 0.0
2015-Aug-25 08:31N 34°33' E 135°18'0 0.0
2015-Aug-25 07:31N 34°33' E 135°18'0 0.0
2015-Aug-25 06:19N 34°33' E 135°18'5 6.2
2015-Aug-25 05:33N 34°30' E 135°13'1413.6
2015-Aug-25 04:33N 34°20' E 135°01'1212.0
2015-Aug-25 03:33N 34°09' E 135°07'2 1.2
2015-Aug-25 02:19N 34°09' E 135°09'0 0.0
2015-Aug-25 01:31N 34°09' E 135°09'0 0.1
2015-Aug-25 00:31N 34°09' E 135°09'0 0.0
2015-Aug-24 23:31N 34°09' E 135°09'0 0.0
2015-Aug-24 22:31N 34°09' E 135°09'0 0.1
2015-Aug-24 21:31N 34°09' E 135°09'0 0.1
2015-Aug-24 20:28N 34°09' E 135°09'0 0.1
2015-Aug-24 19:31N 34°09' E 135°09'0 0.1
2015-Aug-24 18:28N 34°09' E 135°09'0 0.0
2015-Aug-24 17:28N 34°09' E 135°09'0 0.0
2015-Aug-24 16:13N 34°09' E 135°09'0 0.0
2015-Aug-24 15:31N 34°09' E 135°09'0 0.0
2015-Aug-24 14:31N 34°09' E 135°09'0 0.0
2015-Aug-24 13:31N 34°09' E 135°09'0 0.0
2015-Aug-24 12:31N 34°09' E 135°09'0 0.0
2015-Aug-24 11:31N 34°09' E 135°09'0 0.0
2015-Aug-24 10:28N 34°09' E 135°09'0 0.0
2015-Aug-24 09:25N 34°09' E 135°09'0 0.1
2015-Aug-24 08:31N 34°09' E 135°09'0 0.1
2015-Aug-24 07:31N 34°09' E 135°09'0 0.0
2015-Aug-24 06:31N 34°09' E 135°09'0 0.0
2015-Aug-24 05:31N 34°09' E 135°09'0 0.0
2015-Aug-24 04:28N 34°09' E 135°09'0 0.0
2015-Aug-24 03:31N 34°09' E 135°09'0 0.1
2015-Aug-24 02:31N 34°09' E 135°09'0 0.1
2015-Aug-24 01:31N 34°09' E 135°09'0 0.0
2015-Aug-24 00:28N 34°09' E 135°09'0 0.0
2015-Aug-23 23:31N 34°09' E 135°09'0 0.0
2015-Aug-23 22:31N 34°09' E 135°09'0 0.0
2015-Aug-23 21:31N 34°09' E 135°09'0 0.0
2015-Aug-23 20:31N 34°09' E 135°09'0 0.0
2015-Aug-23 19:31N 34°09' E 135°09'0 0.0
2015-Aug-23 18:31N 34°09' E 135°09'0 0.0
2015-Aug-23 17:31N 34°09' E 135°09'0 0.1
2015-Aug-23 16:28N 34°09' E 135°09'0 0.0
2015-Aug-23 15:31N 34°09' E 135°09'0 0.0
2015-Aug-23 14:31N 34°09' E 135°09'0 0.0
2015-Aug-23 13:31N 34°09' E 135°09'0 0.0
2015-Aug-23 12:31N 34°09' E 135°09'0 0.0
2015-Aug-23 11:31N 34°09' E 135°09'0 0.0
2015-Aug-23 10:31N 34°09' E 135°09'0 0.0
2015-Aug-23 09:28N 34°09' E 135°09'0 0.0
2015-Aug-23 08:28N 34°09' E 135°09'0 0.1
2015-Aug-23 07:28N 34°09' E 135°09'0 0.0
2015-Aug-23 06:25N 34°09' E 135°09'0 0.0
2015-Aug-23 05:31N 34°09' E 135°09'0 0.0
2015-Aug-23 04:28N 34°09' E 135°09'0 0.0
2015-Aug-23 03:31N 34°09' E 135°09'0 0.0
2015-Aug-23 02:22N 34°09' E 135°09'2 2.5
2015-Aug-23 01:33N 34°11' E 135°08'2 2.4
2015-Aug-23 00:32N 34°13' E 135°09'0 0.0
2015-Aug-22 23:32N 34°13' E 135°09'0 0.0
2015-Aug-22 22:26N 34°13' E 135°09'0 0.0
2015-Aug-22 21:32N 34°13' E 135°09'0 0.0
2015-Aug-22 20:32N 34°13' E 135°09'0 0.0
2015-Aug-22 19:32N 34°13' E 135°09'0 0.0
2015-Aug-22 18:32N 34°13' E 135°09'0 0.0
2015-Aug-22 17:32N 34°13' E 135°09'0 0.0
2015-Aug-22 16:32N 34°13' E 135°09'0 0.0
2015-Aug-22 15:32N 34°13' E 135°09'0 0.0
2015-Aug-22 14:32N 34°13' E 135°09'0 0.0
2015-Aug-22 13:32N 34°13' E 135°09'0 0.0
2015-Aug-22 12:32N 34°13' E 135°09'0 0.0
2015-Aug-22 11:32N 34°13' E 135°09'0 0.0
2015-Aug-22 10:32N 34°13' E 135°09'0 0.0
2015-Aug-22 09:32N 34°13' E 135°09'0 0.0
2015-Aug-22 08:32N 34°13' E 135°09'0 0.0
2015-Aug-22 07:32N 34°13' E 135°09'0 0.0
2015-Aug-22 06:32N 34°13' E 135°09'0 0.0
2015-Aug-22 05:32N 34°13' E 135°09'0 0.0
2015-Aug-22 04:32N 34°13' E 135°09'0 0.0
2015-Aug-22 03:32N 34°13' E 135°09'0 0.0
2015-Aug-22 02:32N 34°13' E 135°09'0 0.0
2015-Aug-22 01:32N 34°13' E 135°09'0 0.1
2015-Aug-22 00:31N 34°13' E 135°08'2 2.1
2015-Aug-21 23:34N 34°12' E 135°07'2 2.2
2015-Aug-21 22:33N 34°10' E 135°08'0 0.0
2015-Aug-21 21:33N 34°10' E 135°08'0 0.1
2015-Aug-21 20:27N 34°10' E 135°09'0 0.0
2015-Aug-21 19:33N 34°10' E 135°09'0 0.0
2015-Aug-21 18:33N 34°10' E 135°09'0 0.0
2015-Aug-21 17:33N 34°10' E 135°09'0 0.0
2015-Aug-21 16:33N 34°10' E 135°09'0 0.0
2015-Aug-21 15:33N 34°10' E 135°09'0 0.0
2015-Aug-21 14:33N 34°10' E 135°09'0 0.0
2015-Aug-21 13:24N 34°10' E 135°09'0 0.0
2015-Aug-21 12:33N 34°10' E 135°09'0 0.0
2015-Aug-21 11:33N 34°10' E 135°09'0 0.0
2015-Aug-21 10:33N 34°10' E 135°09'0 0.0
2015-Aug-21 09:30N 34°10' E 135°09'0 0.1
2015-Aug-21 08:33N 34°10' E 135°08'0 0.0
2015-Aug-21 07:33N 34°10' E 135°09'0 0.0
2015-Aug-21 06:33N 34°10' E 135°09'0 0.0
2015-Aug-21 05:33N 34°10' E 135°09'0 0.0
2015-Aug-21 04:33N 34°10' E 135°09'1 0.7
2015-Aug-21 03:33N 34°10' E 135°08'3 0.7
2015-Aug-20 23:26N 34°09' E 135°11'2 2.0
2015-Aug-20 22:33N 34°09' E 135°09'0 0.0
2015-Aug-20 21:30N 34°09' E 135°09'0 0.0
2015-Aug-20 20:33N 34°09' E 135°09'0 0.0
2015-Aug-20 19:33N 34°09' E 135°09'0 0.0
2015-Aug-20 18:33N 34°09' E 135°09'0 0.0
2015-Aug-20 17:30N 34°09' E 135°09'0 0.0
2015-Aug-20 16:30N 34°09' E 135°09'0 0.0
2015-Aug-20 15:33N 34°09' E 135°09'0 0.0
2015-Aug-20 14:33N 34°09' E 135°09'0 0.1
2015-Aug-20 13:33N 34°09' E 135°09'0 0.0
2015-Aug-20 12:33N 34°09' E 135°09'0 0.0
2015-Aug-20 11:33N 34°09' E 135°09'0 0.0
2015-Aug-20 10:33N 34°09' E 135°09'0 0.0
2015-Aug-20 09:33N 34°09' E 135°09'0 0.0
2015-Aug-20 08:27N 34°09' E 135°09'0 0.1
2015-Aug-20 07:33N 34°09' E 135°09'1212.4
2015-Aug-20 06:33N 34°18' E 134°59'1313.3
2015-Aug-20 05:33N 34°27' E 135°10'1313.0
2015-Aug-20 04:33N 34°33' E 135°24'1 0.2
2015-Aug-20 00:14N 34°33' E 135°25'3 4.4
2015-Aug-19 23:33N 34°33' E 135°21'2 1.6
2015-Aug-19 22:25N 34°32' E 135°20'0 0.1
2015-Aug-19 21:31N 34°32' E 135°20'0 0.0
2015-Aug-19 20:25N 34°32' E 135°20'0 0.0
2015-Aug-19 19:31N 34°32' E 135°20'0 0.0
2015-Aug-19 18:31N 34°32' E 135°20'0 0.1
2015-Aug-19 17:31N 34°32' E 135°20'0 0.0
2015-Aug-19 16:31N 34°32' E 135°20'0 0.0
2015-Aug-19 15:31N 34°32' E 135°20'0 0.0
2015-Aug-19 14:31N 34°32' E 135°20'0 0.1
2015-Aug-19 13:31N 34°32' E 135°20'0 0.0
2015-Aug-19 12:31N 34°32' E 135°20'0 0.0
2015-Aug-19 11:25N 34°32' E 135°20'0 0.0
2015-Aug-19 10:25N 34°32' E 135°20'0 0.0
2015-Aug-19 09:13N 34°32' E 135°20'0 0.1
2015-Aug-19 08:25N 34°32' E 135°20'0 0.0
2015-Aug-19 07:25N 34°32' E 135°20'4 4.2
2015-Aug-19 06:34N 34°31' E 135°16'  
Track history (hours):
 
Tides and Currents Weather Stations Pressure Air Temp Water Temp Dewpoint Dewpoint Depression Visibility Wind Speed Wind Dir Waves Ship Positions

Hikarimaru No.17

Last reported at 2015-Aug-29 06:32 UTC. Time now 2015-Aug-29 07:25 UTC.
Position N 34°13' E 135°09'.

Length 105 m; draft 5.5 m.

Type: Tanker. MMSI: 431000984.

Date/timePositionNaut miles runAvg speedWind from/ knotsBaromVisibWave heightAir tempDewpointWater temp
2015-Aug-29 06:32N 34°13' E 135°09'0 0.0
2015-Aug-29 05:32N 34°13' E 135°09'0 0.0
2015-Aug-29 04:32N 34°13' E 135°09'0 0.0
2015-Aug-29 03:32N 34°13' E 135°09'0 0.0
2015-Aug-29 02:32N 34°13' E 135°09'0 0.0
2015-Aug-29 01:32N 34°13' E 135°09'0 0.0
2015-Aug-29 00:32N 34°13' E 135°09'2 1.7
2015-Aug-28 23:31N 34°12' E 135°07'0 0.0
2015-Aug-28 22:31N 34°12' E 135°07'0 0.0
2015-Aug-28 21:31N 34°12' E 135°07'0 0.0
2015-Aug-28 20:31N 34°12' E 135°07'0 0.0
2015-Aug-28 19:31N 34°12' E 135°07'0 0.0
2015-Aug-28 18:31N 34°12' E 135°07'0 0.0
2015-Aug-28 17:31N 34°12' E 135°07'0 0.0
2015-Aug-28 16:31N 34°12' E 135°07'0 0.0
2015-Aug-28 15:31N 34°12' E 135°07'0 0.1
2015-Aug-28 14:31N 34°12' E 135°07'0 0.0
2015-Aug-28 13:31N 34°12' E 135°07'0 0.0
2015-Aug-28 12:31N 34°12' E 135°07'1 1.0
2015-Aug-28 11:33N 34°12' E 135°06'24 1.0
2015-Aug-27 12:25N 34°35' E 135°13'22 2.5
2015-Aug-27 03:30N 34°16' E 134°60'1212.4
2015-Aug-27 02:33N 34°09' E 135°11'0 0.1
2015-Aug-27 01:32N 34°09' E 135°11'0 0.0
2015-Aug-27 00:32N 34°09' E 135°11'0 0.0
2015-Aug-26 23:32N 34°09' E 135°11'2 1.7
2015-Aug-26 22:33N 34°09' E 135°09'0 0.0
2015-Aug-26 21:33N 34°09' E 135°09'0 0.0
2015-Aug-26 20:33N 34°09' E 135°09'0 0.0
2015-Aug-26 19:33N 34°09' E 135°09'0 0.0
2015-Aug-26 18:33N 34°09' E 135°09'0 0.0
2015-Aug-26 17:33N 34°09' E 135°09'0 0.1
2015-Aug-26 16:33N 34°09' E 135°09'0 0.0
2015-Aug-26 15:33N 34°09' E 135°09'0 0.0
2015-Aug-26 14:33N 34°09' E 135°09'0 0.0
2015-Aug-26 13:33N 34°09' E 135°09'0 0.0
2015-Aug-26 12:33N 34°09' E 135°09'0 0.0
2015-Aug-26 11:33N 34°09' E 135°09'0 0.0
2015-Aug-26 10:33N 34°09' E 135°09'0 0.0
2015-Aug-26 09:30N 34°09' E 135°09'0 0.0
2015-Aug-26 08:33N 34°09' E 135°09'4 3.8
2015-Aug-26 07:34N 34°11' E 135°05'1110.1
2015-Aug-26 06:30N 34°21' E 135°00'1313.2
2015-Aug-26 05:33N 34°28' E 135°13'1111.2
2015-Aug-26 04:33N 34°33' E 135°25'0 0.3
2015-Aug-26 03:31N 34°32' E 135°25'2 0.4
2015-Aug-25 23:33N 34°33' E 135°23'5 4.0
2015-Aug-25 22:25N 34°33' E 135°18'0 0.1
2015-Aug-25 21:31N 34°33' E 135°18'0 0.0
2015-Aug-25 20:31N 34°33' E 135°18'0 0.0
2015-Aug-25 19:25N 34°33' E 135°18'0 0.0
2015-Aug-25 18:19N 34°33' E 135°18'0 0.0
2015-Aug-25 17:31N 34°33' E 135°18'0 0.0
2015-Aug-25 16:31N 34°33' E 135°18'0 0.0
2015-Aug-25 15:31N 34°33' E 135°18'0 0.0
2015-Aug-25 14:31N 34°33' E 135°18'0 0.0
2015-Aug-25 13:31N 34°33' E 135°18'0 0.0
2015-Aug-25 12:31N 34°33' E 135°18'0 0.0
2015-Aug-25 11:13N 34°33' E 135°18'0 0.0
2015-Aug-25 10:31N 34°33' E 135°18'0 0.0
2015-Aug-25 09:31N 34°33' E 135°18'0 0.0
2015-Aug-25 08:31N 34°33' E 135°18'0 0.0
2015-Aug-25 07:31N 34°33' E 135°18'0 0.0
2015-Aug-25 06:19N 34°33' E 135°18'5 6.2
2015-Aug-25 05:33N 34°30' E 135°13'1413.6
2015-Aug-25 04:33N 34°20' E 135°01'1212.0
2015-Aug-25 03:33N 34°09' E 135°07'2 1.2
2015-Aug-25 02:19N 34°09' E 135°09'0 0.0
2015-Aug-25 01:31N 34°09' E 135°09'0 0.1
2015-Aug-25 00:31N 34°09' E 135°09'0 0.0
2015-Aug-24 23:31N 34°09' E 135°09'0 0.0
2015-Aug-24 22:31N 34°09' E 135°09'0 0.1
2015-Aug-24 21:31N 34°09' E 135°09'0 0.1
2015-Aug-24 20:28N 34°09' E 135°09'0 0.1
2015-Aug-24 19:31N 34°09' E 135°09'0 0.1
2015-Aug-24 18:28N 34°09' E 135°09'0 0.0
2015-Aug-24 17:28N 34°09' E 135°09'0 0.0
2015-Aug-24 16:13N 34°09' E 135°09'0 0.0
2015-Aug-24 15:31N 34°09' E 135°09'0 0.0
2015-Aug-24 14:31N 34°09' E 135°09'0 0.0
2015-Aug-24 13:31N 34°09' E 135°09'0 0.0
2015-Aug-24 12:31N 34°09' E 135°09'0 0.0
2015-Aug-24 11:31N 34°09' E 135°09'0 0.0
2015-Aug-24 10:28N 34°09' E 135°09'0 0.0
2015-Aug-24 09:25N 34°09' E 135°09'0 0.1
2015-Aug-24 08:31N 34°09' E 135°09'0 0.1
2015-Aug-24 07:31N 34°09' E 135°09'0 0.0
2015-Aug-24 06:31N 34°09' E 135°09'0 0.0
2015-Aug-24 05:31N 34°09' E 135°09'0 0.0
2015-Aug-24 04:28N 34°09' E 135°09'0 0.0
2015-Aug-24 03:31N 34°09' E 135°09'0 0.1
2015-Aug-24 02:31N 34°09' E 135°09'0 0.1
2015-Aug-24 01:31N 34°09' E 135°09'0 0.0
2015-Aug-24 00:28N 34°09' E 135°09'0 0.0
2015-Aug-23 23:31N 34°09' E 135°09'0 0.0
2015-Aug-23 22:31N 34°09' E 135°09'0 0.0
2015-Aug-23 21:31N 34°09' E 135°09'0 0.0
2015-Aug-23 20:31N 34°09' E 135°09'0 0.0
2015-Aug-23 19:31N 34°09' E 135°09'0 0.0
2015-Aug-23 18:31N 34°09' E 135°09'0 0.0
2015-Aug-23 17:31N 34°09' E 135°09'0 0.1
2015-Aug-23 16:28N 34°09' E 135°09'0 0.0
2015-Aug-23 15:31N 34°09' E 135°09'0 0.0
2015-Aug-23 14:31N 34°09' E 135°09'0 0.0
2015-Aug-23 13:31N 34°09' E 135°09'0 0.0
2015-Aug-23 12:31N 34°09' E 135°09'0 0.0
2015-Aug-23 11:31N 34°09' E 135°09'0 0.0
2015-Aug-23 10:31N 34°09' E 135°09'0 0.0
2015-Aug-23 09:28N 34°09' E 135°09'0 0.0
2015-Aug-23 08:28N 34°09' E 135°09'0 0.1
2015-Aug-23 07:28N 34°09' E 135°09'0 0.0
2015-Aug-23 06:25N 34°09' E 135°09'0 0.0
2015-Aug-23 05:31N 34°09' E 135°09'0 0.0
2015-Aug-23 04:28N 34°09' E 135°09'0 0.0
2015-Aug-23 03:31N 34°09' E 135°09'0 0.0
2015-Aug-23 02:22N 34°09' E 135°09'2 2.5
2015-Aug-23 01:33N 34°11' E 135°08'2 2.4
2015-Aug-23 00:32N 34°13' E 135°09'0 0.0
2015-Aug-22 23:32N 34°13' E 135°09'0 0.0
2015-Aug-22 22:26N 34°13' E 135°09'0 0.0
2015-Aug-22 21:32N 34°13' E 135°09'0 0.0
2015-Aug-22 20:32N 34°13' E 135°09'0 0.0
2015-Aug-22 19:32N 34°13' E 135°09'0 0.0
2015-Aug-22 18:32N 34°13' E 135°09'0 0.0
2015-Aug-22 17:32N 34°13' E 135°09'0 0.0
2015-Aug-22 16:32N 34°13' E 135°09'0 0.0
2015-Aug-22 15:32N 34°13' E 135°09'0 0.0
2015-Aug-22 14:32N 34°13' E 135°09'0 0.0
2015-Aug-22 13:32N 34°13' E 135°09'0 0.0
2015-Aug-22 12:32N 34°13' E 135°09'0 0.0
2015-Aug-22 11:32N 34°13' E 135°09'0 0.0
2015-Aug-22 10:32N 34°13' E 135°09'0 0.0
2015-Aug-22 09:32N 34°13' E 135°09'0 0.0
2015-Aug-22 08:32N 34°13' E 135°09'0 0.0
2015-Aug-22 07:32N 34°13' E 135°09'0 0.0
2015-Aug-22 06:32N 34°13' E 135°09'0 0.0
2015-Aug-22 05:32N 34°13' E 135°09'0 0.0
2015-Aug-22 04:32N 34°13' E 135°09'0 0.0
2015-Aug-22 03:32N 34°13' E 135°09'0 0.0
2015-Aug-22 02:32N 34°13' E 135°09'0 0.0
2015-Aug-22 01:32N 34°13' E 135°09'0 0.1
2015-Aug-22 00:31N 34°13' E 135°08'2 2.1
2015-Aug-21 23:34N 34°12' E 135°07'2 2.2
2015-Aug-21 22:33N 34°10' E 135°08'0 0.0
2015-Aug-21 21:33N 34°10' E 135°08'0 0.1
2015-Aug-21 20:27N 34°10' E 135°09'0 0.0
2015-Aug-21 19:33N 34°10' E 135°09'0 0.0
2015-Aug-21 18:33N 34°10' E 135°09'0 0.0
2015-Aug-21 17:33N 34°10' E 135°09'0 0.0
2015-Aug-21 16:33N 34°10' E 135°09'0 0.0
2015-Aug-21 15:33N 34°10' E 135°09'0 0.0
2015-Aug-21 14:33N 34°10' E 135°09'0 0.0
2015-Aug-21 13:24N 34°10' E 135°09'0 0.0
2015-Aug-21 12:33N 34°10' E 135°09'0 0.0
2015-Aug-21 11:33N 34°10' E 135°09'0 0.0
2015-Aug-21 10:33N 34°10' E 135°09'0 0.0
2015-Aug-21 09:30N 34°10' E 135°09'0 0.1
2015-Aug-21 08:33N 34°10' E 135°08'0 0.0
2015-Aug-21 07:33N 34°10' E 135°09'0 0.0
2015-Aug-21 06:33N 34°10' E 135°09'0 0.0
2015-Aug-21 05:33N 34°10' E 135°09'0 0.0
2015-Aug-21 04:33N 34°10' E 135°09'1 0.7
2015-Aug-21 03:33N 34°10' E 135°08'3 0.7
2015-Aug-20 23:26N 34°09' E 135°11'2 2.0
2015-Aug-20 22:33N 34°09' E 135°09'0 0.0
2015-Aug-20 21:30N 34°09' E 135°09'0 0.0
2015-Aug-20 20:33N 34°09' E 135°09'0 0.0
2015-Aug-20 19:33N 34°09' E 135°09'0 0.0
2015-Aug-20 18:33N 34°09' E 135°09'0 0.0
2015-Aug-20 17:30N 34°09' E 135°09'0 0.0
2015-Aug-20 16:30N 34°09' E 135°09'0 0.0
2015-Aug-20 15:33N 34°09' E 135°09'0 0.0
2015-Aug-20 14:33N 34°09' E 135°09'0 0.1
2015-Aug-20 13:33N 34°09' E 135°09'0 0.0
2015-Aug-20 12:33N 34°09' E 135°09'0 0.0
2015-Aug-20 11:33N 34°09' E 135°09'0 0.0
2015-Aug-20 10:33N 34°09' E 135°09'0 0.0
2015-Aug-20 09:33N 34°09' E 135°09'0 0.0
2015-Aug-20 08:27N 34°09' E 135°09'0 0.1
2015-Aug-20 07:33N 34°09' E 135°09'1212.4
2015-Aug-20 06:33N 34°18' E 134°59'1313.3
2015-Aug-20 05:33N 34°27' E 135°10'1313.0
2015-Aug-20 04:33N 34°33' E 135°24'1 0.2
2015-Aug-20 00:14N 34°33' E 135°25'3 4.4
2015-Aug-19 23:33N 34°33' E 135°21'2 1.6
2015-Aug-19 22:25N 34°32' E 135°20'0 0.1
2015-Aug-19 21:31N 34°32' E 135°20'0 0.0
2015-Aug-19 20:25N 34°32' E 135°20'0 0.0
2015-Aug-19 19:31N 34°32' E 135°20'0 0.0
2015-Aug-19 18:31N 34°32' E 135°20'0 0.1
2015-Aug-19 17:31N 34°32' E 135°20'0 0.0
2015-Aug-19 16:31N 34°32' E 135°20'0 0.0
2015-Aug-19 15:31N 34°32' E 135°20'0 0.0
2015-Aug-19 14:31N 34°32' E 135°20'0 0.1
2015-Aug-19 13:31N 34°32' E 135°20'0 0.0
2015-Aug-19 12:31N 34°32' E 135°20'0 0.0
2015-Aug-19 11:25N 34°32' E 135°20'0 0.0
2015-Aug-19 10:25N 34°32' E 135°20'0 0.0
2015-Aug-19 09:13N 34°32' E 135°20'0 0.1
2015-Aug-19 08:25N 34°32' E 135°20'0 0.0
2015-Aug-19 07:25N 34°32' E 135°20'4 4.2
2015-Aug-19 06:34N 34°31' E 135°16'  

Dump ship's entire track history